Terminal Aerodrome Forecast
Issued by NWS

Home | Current Version | Previous Version | Text Only | Print | Product List | Glossary On
Versions: 1 2 3 4 5 6 7 8 9 10 11 12 13 14
767
FTUS44 KBMX 222337
TAFMGM
TAF
KMGM 222337Z 2300/2324 12015G25KT 5SM SHRA BKN015 OVC025
      TEMPO 2301/2304 2SM TSRA BKN015CB
     FM230400 18013KT 4SM SHRA BKN015 OVC025
     FM230600 18010KT P6SM BKN007
     FM230900 19007KT 6SM -DZ BKN005=

USA.gov is the U.S. government's official web portal to all federal, state and local government web resources and services.